Aérodrome de Figeac - Livernon

METAR LFSL TAF LFSL
4 °C
°C
-
°C
29m
Idade
18:29:09
LT
17:29
UTC
0 ft

1.000

2.000

3.000

4.000

5.000

FEW 2.000
OVC 3.500
VFR
<?= Yii::t('app', 'Wind direction') ?> <?= Yii::t('app', 'of'); ?>
350°
08:19
Nascer do sol
75%
Humidade
Tesoura de Vento
Fechado/Neve
Alcance visual RWY
Condição RWY
Vert. visibilidade
Min. visibilidade
CAVOK
Tendência
Correcção
Relatório especial
1019 hPa
QNH
METAR LFSL 271700Z AUTO 35008KT 9999 FEW020 OVC035 04/00 Q1019 NOSIG
Nublado
7 kt
7 kt
18:00
MVFR
10 kt
19:00
MVFR
10 kt
20:00
MVFR
10 kt
21:00
MVFR
10 kt
22:00
MVFR
10 kt
23:00
MVFR
10 kt
00:00
MVFR
10 kt
10 km+
Visibilidade
3.500 ft
Tecto
8 kt
Vento
metar-taf.com/LFCF

Metar-Taf.com

Decodificador visual

Nós e terceiros acompanhamos seu comportamento na internet em nosso site com cookies. Se você continuar, nós assumimos que você concorda com nosso política de cookies.